Time;durP1;ratioP1;P1;durP2;ratioP2;P2;SDS_P1;SDS_P2;PMS_P1;PMS_P2;Temp;Humidity;BMP_temperature;BMP_pressure;BME280_temperature;BME280_humidity;BME280_pressure;Samples;Min_cycle;Max_cycle;Signal;HPM_P1;HPM_P2
2023/07/01 00:01:37;;;;;;;17.83;13.37;;;19.20;99.90;;;;;;5033894;28;20815;-71
2023/07/01 00:04:08;;;;;;;20.97;14.53;;;19.20;99.90;;;;;;5022180;28;20788;-69
2023/07/01 00:06:41;;;;;;;19.00;13.67;;;19.20;99.90;;;;;;5014181;28;20762;-69
2023/07/01 00:09:12;;;;;;;20.27;14.20;;;19.10;99.90;;;;;;5014082;28;20841;-69
2023/07/01 00:11:39;;;;;;;18.63;14.13;;;19.10;99.90;;;;;;5013963;28;20439;-70
2023/07/01 00:14:07;;;;;;;17.93;12.60;;;19.10;99.90;;;;;;5024519;28;20438;-69
2023/07/01 00:16:34;;;;;;;17.93;12.43;;;19.10;99.90;;;;;;5017706;28;20469;-69
2023/07/01 00:19:06;;;;;;;18.43;13.83;;;19.10;99.90;;;;;;5013909;28;20441;-69
2023/07/01 00:21:33;;;;;;;18.93;13.70;;;19.10;99.90;;;;;;5013727;28;20434;-69
2023/07/01 00:24:00;;;;;;;20.27;14.03;;;19.00;99.90;;;;;;5023140;28;20458;-69
2023/07/01 00:26:28;;;;;;;19.97;12.90;;;19.00;99.90;;;;;;5019770;28;20463;-69
2023/07/01 00:28:55;;;;;;;19.63;12.80;;;19.00;99.90;;;;;;5013800;28;20439;-69
2023/07/01 00:31:22;;;;;;;18.73;12.67;;;19.10;99.90;;;;;;5013551;28;20481;-69
2023/07/01 00:33:49;;;;;;;19.33;13.20;;;19.00;99.90;;;;;;5013411;28;20515;-69
2023/07/01 00:36:16;;;;;;;16.30;10.83;;;19.00;99.90;;;;;;5013880;28;20828;-69
2023/07/01 00:38:43;;;;;;;16.27;11.30;;;19.00;99.90;;;;;;5013399;28;20431;-69
2023/07/01 00:41:11;;;;;;;20.43;11.60;;;19.00;99.90;;;;;;5013840;28;20487;-69
2023/07/01 00:43:40;;;;;;;13.63;10.77;;;19.00;99.90;;;;;;5013645;28;20825;-69
2023/07/01 00:46:07;;;;;;;16.90;13.50;;;19.00;99.90;;;;;;5013740;28;20446;-69
2023/07/01 00:48:35;;;;;;;17.30;11.90;;;19.10;99.90;;;;;;5013385;28;20434;-69
2023/07/01 00:51:03;;;;;;;15.70;11.20;;;19.10;99.90;;;;;;5017648;28;20473;-69
2023/07/01 00:53:30;;;;;;;16.23;11.87;;;19.10;99.90;;;;;;5017690;28;20466;-69
2023/07/01 00:55:57;;;;;;;17.70;12.27;;;19.10;99.90;;;;;;5017322;28;20434;-69
2023/07/01 00:58:24;;;;;;;20.60;13.47;;;19.10;99.90;;;;;;5020921;28;20433;-69
2023/07/01 01:00:56;;;;;;;17.37;13.37;;;19.10;99.90;;;;;;5037053;28;20429;-69
2023/07/01 01:03:27;;;;;;;19.10;13.30;;;19.10;99.90;;;;;;5032729;28;20466;-69
2023/07/01 01:06:08;;;;;;;29.50;16.20;;;19.10;99.90;;;;;;5017114;28;20462;-69
2023/07/01 01:08:42;;;;;;;20.53;15.87;;;19.10;99.90;;;;;;5017325;28;20465;-69
2023/07/01 01:11:10;;;;;;;19.70;15.13;;;19.10;99.90;;;;;;5017111;28;20948;-69
2023/07/01 01:13:39;;;;;;;21.43;15.87;;;19.00;99.90;;;;;;5017248;28;20509;-72
2023/07/01 01:16:08;;;;;;;20.10;14.80;;;19.00;99.90;;;;;;5017289;28;20836;-69
2023/07/01 01:18:35;;;;;;;22.87;16.03;;;19.00;99.90;;;;;;5017275;28;20430;-69
2023/07/01 01:21:04;;;;;;;25.10;16.67;;;19.00;99.90;;;;;;5016683;28;20426;-69
2023/07/01 01:23:39;;;;;;;24.93;17.47;;;19.00;99.90;;;;;;5018547;28;20438;-69
2023/07/01 01:26:10;;;;;;;23.50;16.43;;;19.00;99.90;;;;;;5036760;28;20421;-69
2023/07/01 01:28:38;;;;;;;23.53;16.73;;;19.00;99.90;;;;;;5036509;28;20428;-70
2023/07/01 01:31:11;;;;;;;24.90;17.10;;;19.00;99.90;;;;;;5036847;28;20467;-69
2023/07/01 01:33:38;;;;;;;22.33;15.83;;;19.00;99.90;;;;;;5031103;28;20548;-70
2023/07/01 01:36:11;;;;;;;22.97;15.97;;;19.00;99.90;;;;;;5016830;28;20466;-73
2023/07/01 01:38:54;;;;;;;26.80;17.03;;;19.00;99.90;;;;;;5017018;28;20912;-69
2023/07/01 01:41:29;;;;;;;23.43;16.37;;;19.00;99.90;;;;;;5016743;28;20449;-69
2023/07/01 01:44:05;;;;;;;23.13;16.47;;;19.00;99.90;;;;;;5015187;28;20507;-69
2023/07/01 01:46:38;;;;;;;17.93;13.83;;;18.90;99.90;;;;;;5015062;28;20422;-69
2023/07/01 01:49:08;;;;;;;24.63;15.67;;;18.90;99.90;;;;;;5015490;28;20420;-70
2023/07/01 01:51:39;;;;;;;18.90;14.50;;;19.00;99.90;;;;;;5015298;28;20427;-69
2023/07/01 01:54:11;;;;;;;22.60;15.93;;;19.00;99.90;;;;;;5014679;28;21018;-69
2023/07/01 01:56:47;;;;;;;21.27;13.07;;;19.00;99.90;;;;;;5015394;28;20497;-69
2023/07/01 01:59:30;;;;;;;24.17;14.20;;;18.90;99.90;;;;;;5015286;28;20456;-69
2023/07/01 02:02:07;;;;;;;19.20;13.60;;;19.00;99.90;;;;;;5014813;28;20476;-69
2023/07/01 02:04:44;;;;;;;21.63;13.70;;;18.90;99.90;;;;;;5017424;28;20442;-69
2023/07/01 02:07:14;;;;;;;22.97;15.40;;;18.90;99.90;;;;;;5015220;28;20438;-69
2023/07/01 02:09:41;;;;;;;15.67;11.60;;;18.90;99.90;;;;;;5014870;28;20453;-69
2023/07/01 02:12:18;;;;;;;20.10;13.83;;;18.90;99.90;;;;;;5015101;28;20498;-70
2023/07/01 02:14:48;;;;;;;16.03;12.03;;;18.80;99.90;;;;;;5027244;28;20441;-69
2023/07/01 02:17:17;;;;;;;16.80;11.63;;;18.80;99.90;;;;;;5034963;28;20419;-69
2023/07/01 02:19:49;;;;;;;16.87;12.27;;;18.80;99.90;;;;;;5034679;28;20830;-69
2023/07/01 02:22:23;;;;;;;13.30;10.03;;;18.80;99.90;;;;;;5034732;28;20491;-69
2023/07/01 02:24:50;;;;;;;15.20;10.37;;;18.80;99.90;;;;;;5020333;28;20561;-69
2023/07/01 02:27:19;;;;;;;16.67;11.00;;;18.80;99.90;;;;;;5014754;28;20474;-69
2023/07/01 02:29:48;;;;;;;13.53;9.17;;;18.80;99.90;;;;;;5022376;28;20433;-69
2023/07/01 02:32:15;;;;;;;10.37;6.83;;;18.80;99.90;;;;;;5031962;28;20928;-69
2023/07/01 02:34:42;;;;;;;14.10;8.70;;;18.80;99.90;;;;;;5033611;28;20978;-69
2023/07/01 02:37:09;;;;;;;8.40;6.73;;;18.70;99.90;;;;;;5034503;28;20433;-69
2023/07/01 02:39:37;;;;;;;11.23;7.00;;;18.70;99.90;;;;;;5034538;28;20825;-69
2023/07/01 02:42:04;;;;;;;10.73;7.13;;;18.60;99.90;;;;;;4982840;28;1149824;-69
2023/07/01 02:44:31;;;;;;;8.17;6.47;;;18.60;99.90;;;;;;5015707;28;20580;-69
2023/07/01 02:47:01;;;;;;;11.17;7.60;;;18.60;99.90;;;;;;5015246;28;20425;-69
2023/07/01 02:49:28;;;;;;;11.20;6.13;;;18.50;99.90;;;;;;5015431;28;20433;-69
2023/07/01 02:51:55;;;;;;;9.17;6.80;;;18.50;99.90;;;;;;5015497;28;20466;-69
2023/07/01 02:54:22;;;;;;;8.30;6.60;;;18.40;99.90;;;;;;5022761;28;20476;-69
2023/07/01 02:56:49;;;;;;;9.30;6.43;;;18.40;99.90;;;;;;5035157;28;20494;-69
2023/07/01 02:59:16;;;;;;;9.60;6.70;;;18.40;99.90;;;;;;5035139;28;20464;-69
2023/07/01 03:01:44;;;;;;;10.10;6.77;;;18.40;99.90;;;;;;5034728;28;20433;-70
2023/07/01 03:04:14;;;;;;;10.10;7.10;;;18.40;99.90;;;;;;5029192;28;20518;-71
2023/07/01 03:06:41;;;;;;;11.50;6.80;;;18.40;99.90;;;;;;5015229;28;20492;-69
2023/07/01 03:09:08;;;;;;;6.53;5.17;;;18.40;99.90;;;;;;5014899;28;20487;-69
2023/07/01 03:11:37;;;;;;;10.37;7.60;;;18.30;99.90;;;;;;5014083;28;20431;-69
2023/07/01 03:14:04;;;;;;;7.90;6.10;;;18.30;99.90;;;;;;5018109;28;20563;-70
2023/07/01 03:16:31;;;;;;;9.13;7.03;;;18.30;99.90;;;;;;5034578;28;20912;-69
2023/07/01 03:18:59;;;;;;;8.00;6.07;;;18.30;99.90;;;;;;5034438;28;20922;-69
2023/07/01 03:21:28;;;;;;;8.03;6.07;;;18.30;99.90;;;;;;5034715;28;20429;-69
2023/07/01 03:23:55;;;;;;;8.40;5.50;;;18.20;99.90;;;;;;5033849;28;20479;-69
2023/07/01 03:26:22;;;;;;;7.13;5.63;;;18.20;99.90;;;;;;5034674;28;20491;-69
2023/07/01 03:28:49;;;;;;;5.50;4.47;;;18.20;99.90;;;;;;5034325;28;20424;-69
2023/07/01 03:31:17;;;;;;;8.57;5.30;;;18.20;99.90;;;;;;5034548;28;20445;-69
2023/07/01 03:33:44;;;;;;;7.00;4.10;;;18.10;99.90;;;;;;5032705;28;20515;-72
2023/07/01 03:36:11;;;;;;;4.53;3.23;;;18.10;99.90;;;;;;5014433;28;20570;-69
2023/07/01 03:38:40;;;;;;;6.00;4.10;;;18.10;99.90;;;;;;5014766;28;20441;-69
2023/07/01 03:41:07;;;;;;;4.30;3.30;;;18.10;99.90;;;;;;5014657;28;20511;-69
2023/07/01 03:43:34;;;;;;;5.90;3.53;;;18.10;99.90;;;;;;5014374;28;20510;-69
2023/07/01 03:46:02;;;;;;;6.33;3.93;;;18.00;99.90;;;;;;5032906;28;20430;-69
2023/07/01 03:48:29;;;;;;;6.57;4.30;;;18.10;99.90;;;;;;5033945;28;20441;-69
2023/07/01 03:50:56;;;;;;;5.80;3.60;;;18.00;99.50;;;;;;5033883;28;20463;-69
2023/07/01 03:53:25;;;;;;;5.13;3.40;;;18.00;99.90;;;;;;5033849;28;20496;-69
2023/07/01 03:55:53;;;;;;;3.47;2.77;;;18.00;99.90;;;;;;5015733;28;20465;-69
2023/07/01 03:58:24;;;;;;;5.13;3.30;;;17.90;99.90;;;;;;5014123;28;20462;-69
2023/07/01 04:00:52;;;;;;;5.27;3.50;;;17.90;99.90;;;;;;5014595;28;20785;-69
2023/07/01 04:03:23;;;;;;;6.00;3.63;;;17.90;99.90;;;;;;5013925;28;20849;-71
2023/07/01 04:05:51;;;;;;;7.30;4.03;;;18.00;99.90;;;;;;5030941;28;20434;-69
2023/07/01 04:08:18;;;;;;;6.47;3.90;;;18.00;99.90;;;;;;5033982;28;20515;-69
2023/07/01 04:10:46;;;;;;;4.67;2.93;;;17.90;99.90;;;;;;5033613;28;20970;-69
2023/07/01 04:13:15;;;;;;;5.50;3.70;;;17.90;99.90;;;;;;5033775;28;20523;-69
2023/07/01 04:15:42;;;;;;;6.27;3.47;;;17.90;99.90;;;;;;5017098;28;20782;-69
2023/07/01 04:18:09;;;;;;;4.00;3.00;;;17.90;99.90;;;;;;5014077;28;20437;-71
2023/07/01 04:20:36;;;;;;;5.73;3.77;;;18.00;99.90;;;;;;5013987;28;20834;-69
2023/07/01 04:23:03;;;;;;;4.80;3.60;;;18.00;99.90;;;;;;5013571;28;20488;-69
2023/07/01 04:25:30;;;;;;;5.30;3.63;;;18.00;99.90;;;;;;5027092;28;20441;-69
2023/07/01 04:27:58;;;;;;;4.40;3.53;;;17.90;99.90;;;;;;5033457;28;20828;-69
2023/07/01 04:30:26;;;;;;;4.50;3.37;;;17.90;99.90;;;;;;5033595;28;20498;-69
2023/07/01 04:32:53;;;;;;;4.73;3.80;;;18.00;99.90;;;;;;5033617;28;20444;-69
2023/07/01 04:35:20;;;;;;;5.10;3.80;;;17.90;99.80;;;;;;5019960;28;20452;-69
2023/07/01 04:37:47;;;;;;;5.00;3.73;;;17.90;99.70;;;;;;5013607;28;20908;-69
2023/07/01 04:40:15;;;;;;;7.17;3.67;;;17.90;99.90;;;;;;5013797;28;20469;-69
2023/07/01 04:42:47;;;;;;;6.37;3.80;;;17.90;99.40;;;;;;5013134;28;20467;-69
2023/07/01 04:45:14;;;;;;;4.63;3.00;;;17.90;99.90;;;;;;5024880;28;20472;-69
2023/07/01 04:47:43;;;;;;;5.93;3.87;;;17.90;99.70;;;;;;5033476;28;20775;-69
2023/07/01 04:50:11;;;;;;;7.33;4.50;;;17.80;99.80;;;;;;5033143;28;20438;-69
2023/07/01 04:52:43;;;;;;;5.80;3.80;;;17.80;99.90;;;;;;5033149;28;20432;-69
2023/07/01 04:55:12;;;;;;;4.23;3.07;;;17.80;99.90;;;;;;5021772;28;20515;-69
2023/07/01 04:57:39;;;;;;;5.17;4.10;;;17.80;99.90;;;;;;5013667;28;20783;-69
2023/07/01 05:00:10;;;;;;;5.27;4.00;;;17.80;99.90;;;;;;5013333;28;20434;-69
2023/07/01 05:02:37;;;;;;;6.00;4.33;;;17.90;99.90;;;;;;5013681;28;20426;-69
2023/07/01 05:05:09;;;;;;;4.67;4.23;;;17.80;99.90;;;;;;5022897;28;20440;-69
2023/07/01 05:07:36;;;;;;;4.47;3.03;;;17.90;99.90;;;;;;5033154;28;20505;-69
2023/07/01 05:10:03;;;;;;;7.03;5.23;;;17.90;99.90;;;;;;5033006;28;20433;-69
2023/07/01 05:12:30;;;;;;;3.80;2.80;;;17.90;99.90;;;;;;5033035;28;20464;-69
2023/07/01 05:14:57;;;;;;;3.57;2.63;;;17.90;99.70;;;;;;5033177;28;20864;-69
2023/07/01 05:17:25;;;;;;;4.07;2.70;;;17.90;99.30;;;;;;5033247;28;20494;-69
2023/07/01 05:19:52;;;;;;;5.10;3.37;;;17.80;99.60;;;;;;5032836;28;20425;-69
2023/07/01 05:22:21;;;;;;;4.30;2.80;;;17.80;99.60;;;;;;5032899;28;20965;-68
2023/07/01 05:24:48;;;;;;;3.67;2.67;;;17.80;99.60;;;;;;5032796;28;20449;-69
2023/07/01 05:27:15;;;;;;;4.90;3.10;;;17.70;99.90;;;;;;5033164;28;20489;-69
2023/07/01 05:29:46;;;;;;;3.77;2.60;;;17.70;99.90;;;;;;5033116;28;20433;-69
2023/07/01 05:32:13;;;;;;;4.73;3.03;;;17.60;99.90;;;;;;5033159;28;20455;-69
2023/07/01 05:34:40;;;;;;;6.17;3.00;;;17.60;99.90;;;;;;5026549;28;21042;-69
2023/07/01 05:37:07;;;;;;;4.90;3.43;;;17.60;99.90;;;;;;5016995;28;20495;-69
2023/07/01 05:39:36;;;;;;;4.53;3.90;;;17.70;99.90;;;;;;5016972;28;20468;-69
2023/07/01 05:42:03;;;;;;;6.07;4.10;;;17.70;99.90;;;;;;5016278;28;20438;-69
2023/07/01 05:44:30;;;;;;;6.80;3.37;;;17.80;99.90;;;;;;5020685;28;20456;-69
2023/07/01 05:46:58;;;;;;;5.30;3.83;;;17.80;99.90;;;;;;5036728;28;20841;-69
2023/07/01 05:49:25;;;;;;;4.10;3.30;;;17.90;99.90;;;;;;5036249;28;20437;-69
2023/07/01 05:51:52;;;;;;;3.83;2.87;;;18.00;99.90;;;;;;5036581;28;20487;-69
2023/07/01 05:54:19;;;;;;;4.23;3.30;;;18.00;99.90;;;;;;5034335;28;20551;-69
2023/07/01 05:56:47;;;;;;;9.93;4.30;;;18.10;99.90;;;;;;5036214;28;20825;-69
2023/07/01 05:59:14;;;;;;;4.93;3.87;;;18.20;99.90;;;;;;5036202;28;20437;-69
2023/07/01 06:01:41;;;;;;;7.30;3.50;;;18.20;99.90;;;;;;5036383;28;20436;-69
2023/07/01 06:04:08;;;;;;;4.93;3.20;;;18.30;99.80;;;;;;5034293;28;20433;-69
2023/07/01 06:06:35;;;;;;;6.30;4.00;;;18.30;99.50;;;;;;5016152;28;20202;-70
2023/07/01 06:09:02;;;;;;;4.27;2.67;;;18.40;99.80;;;;;;5016637;28;20458;-68
2023/07/01 06:11:29;;;;;;;7.63;4.00;;;18.50;99.90;;;;;;5016103;28;20441;-69
2023/07/01 06:13:57;;;;;;;7.17;3.17;;;18.60;99.90;;;;;;5016007;28;20966;-69
2023/07/01 06:16:24;;;;;;;6.90;3.50;;;18.60;99.30;;;;;;5034772;28;20430;-69
2023/07/01 06:18:51;;;;;;;4.20;2.50;;;18.70;98.10;;;;;;5035618;28;20485;-70
2023/07/01 06:21:19;;;;;;;7.03;3.40;;;18.80;98.30;;;;;;5036056;28;20495;-69
2023/07/01 06:23:46;;;;;;;5.20;3.93;;;18.90;98.10;;;;;;5035597;28;20442;-69
2023/07/01 06:26:13;;;;;;;4.23;3.00;;;18.90;97.20;;;;;;5017260;28;20501;-69
2023/07/01 06:28:40;;;;;;;4.93;3.33;;;18.90;96.90;;;;;;5015823;28;20962;-69
2023/07/01 06:31:09;;;;;;;4.00;3.03;;;18.90;96.70;;;;;;5015748;28;20897;-69
2023/07/01 06:33:38;;;;;;;5.00;3.50;;;18.90;96.90;;;;;;5015887;28;20447;-69
2023/07/01 06:36:05;;;;;;;4.50;2.73;;;18.90;97.50;;;;;;5031280;28;20445;-69
2023/07/01 06:38:32;;;;;;;4.77;2.90;;;19.00;97.80;;;;;;5032950;28;20464;-70
2023/07/01 06:40:59;;;;;;;4.10;2.97;;;19.10;96.80;;;;;;5034847;28;20440;-70
2023/07/01 06:43:26;;;;;;;6.43;3.00;;;19.10;97.30;;;;;;5034425;28;20461;-69
2023/07/01 06:45:54;;;;;;;5.20;2.97;;;19.20;97.30;;;;;;5019336;28;20455;-69
2023/07/01 06:48:23;;;;;;;5.30;3.80;;;19.30;97.00;;;;;;5013152;28;20937;-70
2023/07/01 06:50:50;;;;;;;4.20;2.90;;;19.30;96.50;;;;;;5014709;28;20215;-69
2023/07/01 06:53:16;;;;;;;4.23;2.97;;;19.50;96.50;;;;;;5022936;28;20457;-69
2023/07/01 06:55:43;;;;;;;5.20;3.00;;;19.60;96.10;;;;;;5034822;28;20534;-69
2023/07/01 06:58:10;;;;;;;4.90;3.70;;;19.70;96.00;;;;;;5034385;28;20500;-70
2023/07/01 07:00:37;;;;;;;4.43;3.30;;;19.80;95.20;;;;;;5015367;28;20442;-69
2023/07/01 07:03:04;;;;;;;5.50;3.00;;;19.80;94.80;;;;;;5020364;28;20481;-69
2023/07/01 07:05:33;;;;;;;9.90;3.10;;;19.90;93.80;;;;;;5019447;28;20440;-69
2023/07/01 07:08:00;;;;;;;7.80;2.90;;;19.90;93.80;;;;;;5016420;28;20431;-70
2023/07/01 07:10:27;;;;;;;4.60;3.40;;;19.90;93.60;;;;;;5023800;28;20462;-69
2023/07/01 07:12:54;;;;;;;5.53;3.33;;;19.90;92.70;;;;;;5014384;28;21051;-69
2023/07/01 07:15:21;;;;;;;5.00;2.90;;;19.80;92.90;;;;;;5014694;28;20470;-70
2023/07/01 07:17:48;;;;;;;3.43;2.37;;;19.80;92.60;;;;;;5014127;28;20460;-70
2023/07/01 07:20:15;;;;;;;4.20;2.77;;;19.90;93.00;;;;;;5020928;28;20445;-69
2023/07/01 07:22:44;;;;;;;4.10;3.00;;;19.90;92.80;;;;;;5034249;28;20439;-69
2023/07/01 07:25:16;;;;;;;3.33;2.50;;;19.90;92.80;;;;;;5016431;28;20501;-69
2023/07/01 07:27:48;;;;;;;4.00;2.33;;;20.00;92.50;;;;;;5014329;28;20424;-69
2023/07/01 07:30:15;;;;;;;5.03;2.83;;;20.00;91.70;;;;;;5014692;28;20960;-69
2023/07/01 07:32:44;;;;;;;4.07;2.63;;;20.00;92.20;;;;;;5001040;28;20490;-71
2023/07/01 07:35:11;;;;;;;4.20;2.40;;;20.00;91.30;;;;;;4993917;28;20557;-70
2023/07/01 07:37:38;;;;;;;3.87;3.00;;;20.00;91.20;;;;;;4994260;28;20445;-70
2023/07/01 07:40:08;;;;;;;4.18;3.17;;;20.10;91.60;;;;;;4993295;28;20435;-72
2023/07/01 07:42:35;;;;;;;3.80;3.10;;;20.10;92.00;;;;;;4993886;28;20276;-69
2023/07/01 07:45:04;;;;;;;6.63;2.43;;;20.20;91.70;;;;;;5003679;28;20906;-70
2023/07/01 07:47:32;;;;;;;5.03;2.70;;;20.30;92.00;;;;;;5013415;28;20516;-70
2023/07/01 07:50:00;;;;;;;4.10;2.53;;;20.30;91.30;;;;;;5012858;28;20459;-76
2023/07/01 07:52:26;;;;;;;6.67;2.90;;;20.40;90.70;;;;;;5013277;28;20460;-70
2023/07/01 07:54:53;;;;;;;4.60;3.03;;;20.50;90.40;;;;;;5016852;28;20481;-70
2023/07/01 07:57:22;;;;;;;4.20;2.90;;;20.50;90.30;;;;;;5024708;28;20509;-69
2023/07/01 07:59:49;;;;;;;4.47;2.63;;;20.50;90.40;;;;;;5020229;28;20472;-71
2023/07/01 08:02:16;;;;;;;4.77;2.43;;;20.60;90.40;;;;;;5019471;28;20497;-70
2023/07/01 08:04:43;;;;;;;3.80;2.87;;;20.80;90.70;;;;;;5013066;28;20518;-69
2023/07/01 08:07:10;;;;;;;4.80;2.97;;;20.90;90.80;;;;;;5021096;28;20489;-69
2023/07/01 08:09:38;;;;;;;3.93;2.37;;;21.00;91.00;;;;;;5027606;28;20470;-71
2023/07/01 08:12:05;;;;;;;3.60;2.60;;;21.00;89.30;;;;;;5016867;28;20423;-70
2023/07/01 08:14:34;;;;;;;4.70;2.50;;;21.10;88.60;;;;;;5013070;28;20508;-69
2023/07/01 08:17:01;;;;;;;4.27;3.33;;;21.20;87.80;;;;;;5005904;28;20465;-69
2023/07/01 08:19:28;;;;;;;4.43;3.00;;;21.30;87.30;;;;;;5019097;28;20468;-71
2023/07/01 08:21:55;;;;;;;3.93;2.33;;;21.30;84.10;;;;;;5012749;28;20430;-69
2023/07/01 08:24:23;;;;;;;5.43;2.20;;;21.40;85.40;;;;;;5013002;28;20468;-70
2023/07/01 08:26:50;;;;;;;3.70;2.60;;;21.50;87.10;;;;;;5021982;28;20439;-69
2023/07/01 08:29:17;;;;;;;3.47;2.40;;;21.60;84.20;;;;;;5032472;28;20859;-70
2023/07/01 08:31:45;;;;;;;7.30;4.67;;;21.70;83.00;;;;;;5032764;28;20424;-70
2023/07/01 08:34:12;;;;;;;4.13;2.43;;;21.80;80.10;;;;;;5017206;28;20436;-70
2023/07/01 08:36:39;;;;;;;5.30;2.60;;;21.80;78.50;;;;;;5012783;28;20434;-70
2023/07/01 08:39:07;;;;;;;5.53;2.73;;;21.90;80.10;;;;;;5012722;28;20433;-70
2023/07/01 08:41:37;;;;;;;5.47;2.30;;;22.00;78.40;;;;;;5011443;28;20440;-70
2023/07/01 08:44:06;;;;;;;4.90;2.70;;;22.20;79.40;;;;;;5012702;28;20491;-69
2023/07/01 08:46:33;;;;;;;4.07;2.50;;;22.40;77.20;;;;;;5011257;28;20473;-72
2023/07/01 08:49:02;;;;;;;10.60;2.47;;;22.50;77.10;;;;;;5011561;28;20793;-70
2023/07/01 08:51:32;;;;;;;4.80;3.60;;;22.70;72.40;;;;;;5027483;28;20444;-72
2023/07/01 08:54:03;;;;;;;4.30;2.60;;;22.80;75.20;;;;;;5031903;28;20437;-70
2023/07/01 08:56:30;;;;;;;4.60;2.63;;;22.90;74.60;;;;;;5030286;28;20469;-70
2023/07/01 08:58:58;;;;;;;3.17;2.10;;;23.10;70.30;;;;;;5032631;28;20492;-70
2023/07/01 09:01:25;;;;;;;4.83;2.43;;;23.10;66.30;;;;;;5032764;28;20811;-70
2023/07/01 09:03:52;;;;;;;4.03;2.30;;;23.10;67.30;;;;;;5032237;28;20464;-70
2023/07/01 09:06:20;;;;;;;3.60;2.20;;;23.10;65.30;;;;;;5020741;28;20437;-70
2023/07/01 09:08:47;;;;;;;3.47;2.60;;;23.20;65.10;;;;;;5012746;28;20439;-70
2023/07/01 09:11:16;;;;;;;5.60;2.47;;;23.20;65.10;;;;;;4994362;28;20442;-70
2023/07/01 09:13:44;;;;;;;7.10;2.53;;;23.20;61.50;;;;;;5005379;28;20437;-70
2023/07/01 09:16:11;;;;;;;3.43;2.27;;;23.30;63.60;;;;;;5018684;28;20523;-70
2023/07/01 09:18:41;;;;;;;4.07;2.20;;;23.30;62.40;;;;;;5016443;28;20879;-70
2023/07/01 09:21:18;;;;;;;5.50;3.10;;;23.30;63.70;;;;;;5016428;28;20421;-70
2023/07/01 09:23:46;;;;;;;5.50;2.50;;;23.10;59.60;;;;;;5016634;28;20432;-70
2023/07/01 09:26:15;;;;;;;7.30;2.97;;;23.00;59.00;;;;;;5026895;28;20475;-70
2023/07/01 09:28:45;;;;;;;4.00;2.50;;;23.00;60.30;;;;;;5037036;28;20431;-70
2023/07/01 09:31:14;;;;;;;8.20;2.40;;;22.90;62.00;;;;;;5036493;28;20435;-70
2023/07/01 09:33:41;;;;;;;5.30;1.97;;;23.10;64.40;;;;;;5037125;28;20474;-70
2023/07/01 09:36:09;;;;;;;4.53;2.30;;;23.40;63.70;;;;;;5036024;28;20526;-70
2023/07/01 09:38:52;;;;;;;3.30;2.23;;;23.60;64.10;;;;;;5036779;28;20437;-70
2023/07/01 09:41:20;;;;;;;3.77;2.30;;;23.70;54.90;;;;;;5036507;28;20428;-70
2023/07/01 09:43:49;;;;;;;7.70;2.67;;;23.60;56.10;;;;;;5036750;28;20525;-70
2023/07/01 09:46:16;;;;;;;4.20;2.47;;;23.70;58.40;;;;;;5036690;28;20772;-70
2023/07/01 09:48:51;;;;;;;6.60;1.90;;;23.90;59.80;;;;;;5036309;28;20435;-70
2023/07/01 09:51:19;;;;;;;4.97;3.43;;;24.10;56.10;;;;;;5036289;28;20435;-70
2023/07/01 09:53:46;;;;;;;6.27;2.80;;;24.20;52.50;;;;;;5036641;28;20471;-70
2023/07/01 09:56:15;;;;;;;5.10;2.63;;;24.30;56.00;;;;;;5036142;28;20504;-70
2023/07/01 09:58:42;;;;;;;3.70;2.50;;;24.40;57.20;;;;;;5036056;28;20430;-70
2023/07/01 10:01:11;;;;;;;4.17;2.20;;;24.50;57.80;;;;;;5036355;28;20768;-70
2023/07/01 10:03:39;;;;;;;5.50;1.87;;;24.70;56.70;;;;;;5036275;28;20441;-70
2023/07/01 10:06:13;;;;;;;4.03;2.27;;;24.80;56.40;;;;;;5035845;28;20441;-70
2023/07/01 10:08:43;;;;;;;3.90;2.20;;;24.80;53.30;;;;;;5036183;28;20479;-71
2023/07/01 10:11:15;;;;;;;4.60;2.50;;;24.90;52.50;;;;;;5036038;28;20434;-71
2023/07/01 10:13:46;;;;;;;3.93;2.50;;;24.90;51.70;;;;;;5035745;28;20902;-70
2023/07/01 10:16:14;;;;;;;4.80;1.93;;;24.70;50.80;;;;;;5035749;28;20465;-70
2023/07/01 10:18:41;;;;;;;3.80;2.33;;;24.60;51.90;;;;;;5036021;28;20436;-70
2023/07/01 10:21:27;;;;;;;4.97;2.23;;;24.50;53.10;;;;;;5035705;28;20500;-70
2023/07/01 10:23:55;;;;;;;3.30;2.30;;;24.60;52.80;;;;;;5035397;28;20494;-70
2023/07/01 10:26:37;;;;;;;5.00;2.13;;;24.60;51.20;;;;;;5035972;28;20481;-70
2023/07/01 10:29:40;;;;;;;3.60;2.80;;;24.50;52.10;;;;;;5035924;28;20441;-70
2023/07/01 10:32:30;;;;;;;3.80;2.43;;;24.30;51.10;;;;;;5035813;28;20441;-71
2023/07/01 10:35:14;;;;;;;5.10;2.83;;;24.10;51.30;;;;;;5035524;28;20472;-70
2023/07/01 10:37:42;;;;;;;4.30;1.97;;;23.90;52.40;;;;;;5035632;28;20432;-71
2023/07/01 10:40:42;;;;;;;4.03;2.73;;;23.80;53.60;;;;;;5035757;28;20437;-70
2023/07/01 10:43:32;;;;;;;3.60;2.50;;;23.90;53.50;;;;;;5030840;28;20466;-70
2023/07/01 10:46:21;;;;;;;5.03;2.70;;;23.90;53.60;;;;;;5031730;28;20764;-70
2023/07/01 10:49:09;;;;;;;4.60;2.30;;;24.00;55.00;;;;;;5035103;28;20899;-70
2023/07/01 10:52:07;;;;;;;3.77;2.27;;;24.20;56.10;;;;;;5035494;28;20425;-70
2023/07/01 10:54:38;;;;;;;7.90;3.20;;;24.40;56.50;;;;;;5034774;28;20449;-70
2023/07/01 10:57:13;;;;;;;4.30;2.60;;;24.60;56.30;;;;;;5035033;28;20523;-70
2023/07/01 10:59:41;;;;;;;4.97;2.30;;;24.70;54.60;;;;;;5034942;28;20517;-70
2023/07/01 11:02:10;;;;;;;4.03;2.50;;;24.80;55.00;;;;;;5021623;28;20466;-70
2023/07/01 11:05:04;;;;;;;5.50;2.50;;;24.90;55.20;;;;;;5014797;28;20447;-70
2023/07/01 11:07:32;;;;;;;4.80;2.10;;;24.90;55.50;;;;;;5009208;28;20475;-70
2023/07/01 11:09:59;;;;;;;3.30;2.17;;;24.90;55.40;;;;;;5022279;28;20509;-70
2023/07/01 11:12:27;;;;;;;3.83;2.37;;;24.90;55.10;;;;;;5035214;28;20512;-70
2023/07/01 11:14:55;;;;;;;3.93;2.40;;;24.90;55.60;;;;;;5034431;28;20923;-70
2023/07/01 11:17:24;;;;;;;3.70;2.23;;;24.90;54.30;;;;;;5034640;28;20499;-70
2023/07/01 11:19:55;;;;;;;4.87;2.90;;;24.90;54.10;;;;;;5034679;28;20504;-70
2023/07/01 11:22:22;;;;;;;4.77;2.40;;;25.00;54.30;;;;;;5034808;28;20430;-70
2023/07/01 11:24:50;;;;;;;4.50;2.00;;;25.10;53.80;;;;;;5034300;28;20441;-70
2023/07/01 11:27:17;;;;;;;4.60;2.37;;;25.10;53.50;;;;;;5034602;28;20445;-70
2023/07/01 11:29:47;;;;;;;3.10;2.30;;;25.20;53.20;;;;;;5024282;28;21038;-70
2023/07/01 11:32:17;;;;;;;5.73;2.70;;;25.20;52.90;;;;;;5014578;28;20453;-70
2023/07/01 11:34:46;;;;;;;9.07;2.97;;;25.10;52.80;;;;;;5014333;28;20427;-70
2023/07/01 11:37:23;;;;;;;3.90;2.30;;;25.00;53.50;;;;;;5014615;28;20474;-70
2023/07/01 11:39:51;;;;;;;4.10;2.47;;;24.90;54.20;;;;;;5014718;28;20437;-70
2023/07/01 11:42:18;;;;;;;3.63;2.27;;;24.90;52.90;;;;;;5014283;28;20469;-70
2023/07/01 11:44:45;;;;;;;5.10;2.90;;;24.80;52.90;;;;;;5014563;28;20497;-70
2023/07/01 11:47:15;;;;;;;4.07;2.30;;;24.70;54.10;;;;;;5014096;28;20500;-70
2023/07/01 11:49:42;;;;;;;5.17;3.23;;;24.70;54.50;;;;;;5014228;28;20442;-70
2023/07/01 11:52:09;;;;;;;4.70;2.80;;;24.70;53.30;;;;;;5013940;28;20462;-70
2023/07/01 11:54:44;;;;;;;6.43;2.67;;;24.60;52.70;;;;;;5014380;28;20463;-70
2023/07/01 11:57:13;;;;;;;3.50;2.43;;;24.60;52.30;;;;;;5013973;28;20494;-70
2023/07/01 11:59:41;;;;;;;3.33;2.40;;;24.50;53.30;;;;;;5013857;28;20437;-71
2023/07/01 12:02:09;;;;;;;4.53;2.23;;;24.60;54.30;;;;;;5014176;28;20519;-70
2023/07/01 12:04:37;;;;;;;4.20;2.37;;;24.60;54.00;;;;;;5013922;28;20439;-70
2023/07/01 12:07:09;;;;;;;6.90;2.90;;;24.70;53.90;;;;;;5013836;28;20462;-70
2023/07/01 12:09:37;;;;;;;3.33;2.10;;;24.80;54.50;;;;;;5013709;28;20436;-70
2023/07/01 12:12:05;;;;;;;4.20;2.60;;;24.90;52.80;;;;;;5013737;28;20912;-70
2023/07/01 12:14:32;;;;;;;4.00;2.00;;;25.00;52.40;;;;;;5013910;28;20488;-70
2023/07/01 12:16:59;;;;;;;3.33;2.10;;;25.10;52.80;;;;;;5013586;28;20475;-70
2023/07/01 12:19:26;;;;;;;3.77;2.53;;;25.20;53.10;;;;;;5014087;28;20435;-70
2023/07/01 12:21:56;;;;;;;3.27;2.10;;;25.40;51.80;;;;;;5013754;28;20485;-71
2023/07/01 12:24:25;;;;;;;3.80;2.47;;;25.50;50.50;;;;;;5013929;28;20489;-70
2023/07/01 12:26:53;;;;;;;3.97;2.40;;;25.50;50.20;;;;;;5013644;28;20436;-70
2023/07/01 12:29:20;;;;;;;3.10;1.60;;;25.60;51.30;;;;;;5013990;28;20438;-70
2023/07/01 12:31:48;;;;;;;3.00;1.90;;;25.70;49.20;;;;;;5013671;28;20976;-70
2023/07/01 12:34:15;;;;;;;3.20;1.90;;;25.80;47.20;;;;;;5013457;28;20466;-70
2023/07/01 12:36:44;;;;;;;4.20;2.00;;;25.70;47.50;;;;;;5013757;28;20870;-70
2023/07/01 12:39:13;;;;;;;3.17;2.17;;;25.60;46.60;;;;;;5013794;28;20470;-70
2023/07/01 12:41:40;;;;;;;2.87;2.03;;;25.30;47.20;;;;;;5013735;28;20435;-70
2023/07/01 12:44:09;;;;;;;4.50;2.50;;;25.00;47.80;;;;;;5014301;28;20458;-70
2023/07/01 12:46:38;;;;;;;4.50;2.10;;;25.00;48.20;;;;;;5017860;28;20442;-70
2023/07/01 12:49:06;;;;;;;2.70;1.90;;;25.00;48.60;;;;;;5017502;28;20928;-70
2023/07/01 12:51:36;;;;;;;3.70;2.60;;;25.00;48.00;;;;;;5017386;28;20483;-70
2023/07/01 12:54:04;;;;;;;4.47;2.37;;;24.90;49.20;;;;;;5017372;28;20432;-70